Terminal Aerodrome Forecast
Issued by NWS

Home | Current Version | Previous Version | Text Only | Print | Product List | Glossary On
Versions: 1 2 3 4 5 6 7 8 9 10 11 12 13 14 15 16 17 18
000
FTAK31 PAFA 171739
TAFAOT
TAF
PAOT 171739Z 1718/1818 14011KT P6SM SCT035 BKN045 OVC100
     FM180900 12029G35KT 4SM BLSN BR BKN050
     FM181600 12034G40KT 1 1/2SM BR OVC050=

USA.gov is the U.S. government's official web portal to all federal, state and local government web resources and services.